sensor_id;sensor_type;location;lat;lon;timestamp;P1;durP1;ratioP1;P2;durP2;ratioP2
64022;SDS011;50264;52.088;5.296;2023-04-06T00:02:35;18.7;;;14.2;;
64022;SDS011;50264;52.088;5.296;2023-04-06T00:04:11;18.91;;;13.8;;
64022;SDS011;50264;52.088;5.296;2023-04-06T00:05:47;17.7;;;13.5;;
64022;SDS011;50264;52.088;5.296;2023-04-06T00:09:01;18.41;;;14.8;;
64022;SDS011;50264;52.088;5.296;2023-04-06T00:10:37;20.2;;;14.3;;
64022;SDS011;50264;52.088;5.296;2023-04-06T00:12:13;20.9;;;14.8;;
64022;SDS011;50264;52.088;5.296;2023-04-06T00:15:25;18.0;;;14.4;;
64022;SDS011;50264;52.088;5.296;2023-04-06T00:17:02;22.8;;;14.7;;
64022;SDS011;50264;52.088;5.296;2023-04-06T00:18:38;19.3;;;14.4;;
64022;SDS011;50264;52.088;5.296;2023-04-06T00:20:15;18.11;;;15.1;;
64022;SDS011;50264;52.088;5.296;2023-04-06T00:23:28;19.8;;;14.4;;
64022;SDS011;50264;52.088;5.296;2023-04-06T00:25:04;18.2;;;14.6;;
64022;SDS011;50264;52.088;5.296;2023-04-06T00:26:41;19.0;;;14.5;;
64022;SDS011;50264;52.088;5.296;2023-04-06T00:29:53;17.5;;;14.5;;
64022;SDS011;50264;52.088;5.296;2023-04-06T00:31:29;30.9;;;14.6;;
64022;SDS011;50264;52.088;5.296;2023-04-06T00:33:05;18.5;;;14.5;;
64022;SDS011;50264;52.088;5.296;2023-04-06T00:36:18;17.91;;;14.2;;
64022;SDS011;50264;52.088;5.296;2023-04-06T00:37:54;18.5;;;14.5;;
64022;SDS011;50264;52.088;5.296;2023-04-06T00:39:30;18.11;;;14.0;;
64022;SDS011;50264;52.088;5.296;2023-04-06T00:41:06;20.3;;;14.9;;
64022;SDS011;50264;52.088;5.296;2023-04-06T00:44:19;19.2;;;14.7;;
64022;SDS011;50264;52.088;5.296;2023-04-06T00:45:56;21.1;;;14.9;;
64022;SDS011;50264;52.088;5.296;2023-04-06T00:47:32;20.5;;;15.5;;
64022;SDS011;50264;52.088;5.296;2023-04-06T00:50:45;18.11;;;14.5;;
64022;SDS011;50264;52.088;5.296;2023-04-06T00:52:21;17.8;;;14.2;;
64022;SDS011;50264;52.088;5.296;2023-04-06T00:53:58;16.4;;;14.6;;
64022;SDS011;50264;52.088;5.296;2023-04-06T00:57:11;18.0;;;14.5;;
64022;SDS011;50264;52.088;5.296;2023-04-06T00:58:48;18.0;;;14.5;;
64022;SDS011;50264;52.088;5.296;2023-04-06T01:00:24;17.91;;;14.0;;
64022;SDS011;50264;52.088;5.296;2023-04-06T01:03:36;19.2;;;14.4;;
64022;SDS011;50264;52.088;5.296;2023-04-06T01:05:12;18.41;;;15.1;;
64022;SDS011;50264;52.088;5.296;2023-04-06T01:06:48;18.2;;;14.4;;
64022;SDS011;50264;52.088;5.296;2023-04-06T01:08:24;19.2;;;13.9;;
64022;SDS011;50264;52.088;5.296;2023-04-06T01:11:40;23.6;;;17.3;;
64022;SDS011;50264;52.088;5.296;2023-04-06T01:13:16;23.2;;;15.7;;
64022;SDS011;50264;52.088;5.296;2023-04-06T01:14:52;22.7;;;14.8;;
64022;SDS011;50264;52.088;5.296;2023-04-06T01:18:04;16.8;;;14.5;;
64022;SDS011;50264;52.088;5.296;2023-04-06T01:19:40;18.7;;;14.2;;
64022;SDS011;50264;52.088;5.296;2023-04-06T01:21:16;15.4;;;13.8;;
64022;SDS011;50264;52.088;5.296;2023-04-06T01:24:29;25.3;;;15.2;;
64022;SDS011;50264;52.088;5.296;2023-04-06T01:26:05;17.2;;;14.8;;
64022;SDS011;50264;52.088;5.296;2023-04-06T01:27:41;20.7;;;15.1;;
64022;SDS011;50264;52.088;5.296;2023-04-06T01:29:17;19.0;;;15.0;;
64022;SDS011;50264;52.088;5.296;2023-04-06T01:32:30;17.7;;;14.4;;
64022;SDS011;50264;52.088;5.296;2023-04-06T01:34:06;20.3;;;14.7;;
64022;SDS011;50264;52.088;5.296;2023-04-06T01:35:42;16.5;;;14.5;;
64022;SDS011;50264;52.088;5.296;2023-04-06T01:38:54;18.0;;;14.5;;
64022;SDS011;50264;52.088;5.296;2023-04-06T01:40:30;17.5;;;14.7;;
64022;SDS011;50264;52.088;5.296;2023-04-06T01:42:06;18.61;;;14.3;;
64022;SDS011;50264;52.088;5.296;2023-04-06T01:45:19;17.41;;;13.6;;
64022;SDS011;50264;52.088;5.296;2023-04-06T01:46:55;17.11;;;14.8;;
64022;SDS011;50264;52.088;5.296;2023-04-06T01:48:31;19.41;;;13.6;;
64022;SDS011;50264;52.088;5.296;2023-04-06T01:51:43;15.1;;;13.0;;
64022;SDS011;50264;52.088;5.296;2023-04-06T01:53:19;15.2;;;12.8;;
64022;SDS011;50264;52.088;5.296;2023-04-06T01:54:55;16.4;;;13.3;;
64022;SDS011;50264;52.088;5.296;2023-04-06T01:56:32;18.41;;;14.1;;
64022;SDS011;50264;52.088;5.296;2023-04-06T01:59:44;15.9;;;13.2;;
64022;SDS011;50264;52.088;5.296;2023-04-06T02:01:20;16.61;;;12.2;;
64022;SDS011;50264;52.088;5.296;2023-04-06T02:02:56;16.9;;;13.5;;
64022;SDS011;50264;52.088;5.296;2023-04-06T02:06:08;18.8;;;13.0;;
64022;SDS011;50264;52.088;5.296;2023-04-06T02:07:45;16.4;;;13.1;;
64022;SDS011;50264;52.088;5.296;2023-04-06T02:09:21;19.2;;;12.8;;
64022;SDS011;50264;52.088;5.296;2023-04-06T02:12:33;15.9;;;12.5;;
64022;SDS011;50264;52.088;5.296;2023-04-06T02:14:09;15.2;;;11.6;;
64022;SDS011;50264;52.088;5.296;2023-04-06T02:15:45;16.0;;;12.0;;
64022;SDS011;50264;52.088;5.296;2023-04-06T02:17:21;16.11;;;11.3;;
64022;SDS011;50264;52.088;5.296;2023-04-06T02:20:34;13.2;;;11.8;;
64022;SDS011;50264;52.088;5.296;2023-04-06T02:22:10;13.5;;;11.7;;
64022;SDS011;50264;52.088;5.296;2023-04-06T02:23:46;13.2;;;11.8;;
64022;SDS011;50264;52.088;5.296;2023-04-06T02:26:58;14.5;;;11.1;;
64022;SDS011;50264;52.088;5.296;2023-04-06T02:28:35;14.8;;;10.9;;
64022;SDS011;50264;52.088;5.296;2023-04-06T02:30:12;11.9;;;10.6;;
64022;SDS011;50264;52.088;5.296;2023-04-06T02:33:24;14.3;;;11.2;;
64022;SDS011;50264;52.088;5.296;2023-04-06T02:35:00;15.9;;;11.8;;
64022;SDS011;50264;52.088;5.296;2023-04-06T02:36:37;16.3;;;11.5;;
64022;SDS011;50264;52.088;5.296;2023-04-06T02:39:50;13.1;;;10.3;;
64022;SDS011;50264;52.088;5.296;2023-04-06T02:41:26;16.4;;;11.3;;
64022;SDS011;50264;52.088;5.296;2023-04-06T02:43:02;12.2;;;10.21;;
64022;SDS011;50264;52.088;5.296;2023-04-06T02:44:38;11.2;;;10.0;;
64022;SDS011;50264;52.088;5.296;2023-04-06T02:47:50;18.0;;;11.9;;
64022;SDS011;50264;52.088;5.296;2023-04-06T02:49:26;13.8;;;10.7;;
64022;SDS011;50264;52.088;5.296;2023-04-06T02:51:03;12.6;;;10.1;;
64022;SDS011;50264;52.088;5.296;2023-04-06T02:54:15;12.6;;;10.6;;
64022;SDS011;50264;52.088;5.296;2023-04-06T02:55:51;11.6;;;9.5;;
64022;SDS011;50264;52.088;5.296;2023-04-06T02:57:27;12.4;;;10.1;;
64022;SDS011;50264;52.088;5.296;2023-04-06T03:00:39;13.0;;;11.0;;
64022;SDS011;50264;52.088;5.296;2023-04-06T03:02:15;13.8;;;10.9;;
64022;SDS011;50264;52.088;5.296;2023-04-06T03:03:52;14.3;;;11.1;;
64022;SDS011;50264;52.088;5.296;2023-04-06T03:05:28;15.0;;;11.3;;
64022;SDS011;50264;52.088;5.296;2023-04-06T03:08:40;13.3;;;10.3;;
64022;SDS011;50264;52.088;5.296;2023-04-06T03:10:16;14.0;;;10.9;;
64022;SDS011;50264;52.088;5.296;2023-04-06T03:11:52;15.4;;;10.6;;
64022;SDS011;50264;52.088;5.296;2023-04-06T03:15:05;13.9;;;11.3;;
64022;SDS011;50264;52.088;5.296;2023-04-06T03:16:42;15.7;;;10.7;;
64022;SDS011;50264;52.088;5.296;2023-04-06T03:18:20;14.1;;;10.0;;
64022;SDS011;50264;52.088;5.296;2023-04-06T03:21:33;11.5;;;10.3;;
64022;SDS011;50264;52.088;5.296;2023-04-06T03:23:09;11.9;;;10.4;;
64022;SDS011;50264;52.088;5.296;2023-04-06T03:24:45;13.0;;;10.7;;
64022;SDS011;50264;52.088;5.296;2023-04-06T03:27:58;14.9;;;10.8;;
64022;SDS011;50264;52.088;5.296;2023-04-06T03:29:34;13.1;;;11.4;;
64022;SDS011;50264;52.088;5.296;2023-04-06T03:31:10;14.4;;;10.5;;
64022;SDS011;50264;52.088;5.296;2023-04-06T03:32:46;17.0;;;10.8;;
64022;SDS011;50264;52.088;5.296;2023-04-06T03:35:59;13.9;;;10.5;;
64022;SDS011;50264;52.088;5.296;2023-04-06T03:37:35;14.5;;;11.3;;
64022;SDS011;50264;52.088;5.296;2023-04-06T03:39:11;13.6;;;11.2;;
64022;SDS011;50264;52.088;5.296;2023-04-06T03:42:24;15.9;;;11.5;;
64022;SDS011;50264;52.088;5.296;2023-04-06T03:44:00;18.0;;;11.4;;
64022;SDS011;50264;52.088;5.296;2023-04-06T03:45:36;14.3;;;12.0;;
64022;SDS011;50264;52.088;5.296;2023-04-06T03:48:49;15.4;;;11.9;;
64022;SDS011;50264;52.088;5.296;2023-04-06T03:50:25;16.11;;;11.6;;
64022;SDS011;50264;52.088;5.296;2023-04-06T03:52:01;16.8;;;12.7;;
64022;SDS011;50264;52.088;5.296;2023-04-06T03:53:37;20.2;;;13.1;;
64022;SDS011;50264;52.088;5.296;2023-04-06T03:56:49;21.1;;;13.4;;
64022;SDS011;50264;52.088;5.296;2023-04-06T03:58:25;16.3;;;12.3;;
64022;SDS011;50264;52.088;5.296;2023-04-06T04:00:01;20.8;;;13.6;;
64022;SDS011;50264;52.088;5.296;2023-04-06T04:03:13;18.5;;;13.6;;
64022;SDS011;50264;52.088;5.296;2023-04-06T04:04:49;20.2;;;14.4;;
64022;SDS011;50264;52.088;5.296;2023-04-06T04:06:25;18.3;;;14.2;;
64022;SDS011;50264;52.088;5.296;2023-04-06T04:09:37;18.11;;;14.1;;
64022;SDS011;50264;52.088;5.296;2023-04-06T04:11:14;16.5;;;13.4;;
64022;SDS011;50264;52.088;5.296;2023-04-06T04:12:50;18.91;;;13.4;;
64022;SDS011;50264;52.088;5.296;2023-04-06T04:16:02;17.8;;;12.7;;
64022;SDS011;50264;52.088;5.296;2023-04-06T04:17:39;19.11;;;13.7;;
64022;SDS011;50264;52.088;5.296;2023-04-06T04:19:15;17.5;;;13.3;;
64022;SDS011;50264;52.088;5.296;2023-04-06T04:20:51;21.8;;;14.2;;
64022;SDS011;50264;52.088;5.296;2023-04-06T04:24:03;22.4;;;13.8;;
64022;SDS011;50264;52.088;5.296;2023-04-06T04:25:40;20.3;;;13.8;;
64022;SDS011;50264;52.088;5.296;2023-04-06T04:32:14;18.5;;;13.8;;
64022;SDS011;50264;52.088;5.296;2023-04-06T04:33:50;19.41;;;15.3;;
64022;SDS011;50264;52.088;5.296;2023-04-06T04:35:27;18.5;;;13.5;;
64022;SDS011;50264;52.088;5.296;2023-04-06T04:38:39;24.1;;;14.7;;
64022;SDS011;50264;52.088;5.296;2023-04-06T04:40:15;21.5;;;14.6;;
64022;SDS011;50264;52.088;5.296;2023-04-06T04:41:52;19.11;;;14.2;;
64022;SDS011;50264;52.088;5.296;2023-04-06T04:45:05;18.5;;;14.3;;
64022;SDS011;50264;52.088;5.296;2023-04-06T04:46:41;18.41;;;14.4;;
64022;SDS011;50264;52.088;5.296;2023-04-06T04:48:18;21.1;;;14.7;;
64022;SDS011;50264;52.088;5.296;2023-04-06T04:51:30;15.7;;;14.1;;
64022;SDS011;50264;52.088;5.296;2023-04-06T04:53:06;18.11;;;14.0;;
64022;SDS011;50264;52.088;5.296;2023-04-06T04:54:43;22.8;;;16.0;;
64022;SDS011;50264;52.088;5.296;2023-04-06T04:57:55;22.0;;;14.5;;
64022;SDS011;50264;52.088;5.296;2023-04-06T04:59:32;16.7;;;14.8;;
64022;SDS011;50264;52.088;5.296;2023-04-06T05:01:11;20.8;;;15.7;;
64022;SDS011;50264;52.088;5.296;2023-04-06T05:02:47;19.11;;;14.8;;
64022;SDS011;50264;52.088;5.296;2023-04-06T05:05:59;19.0;;;14.9;;
64022;SDS011;50264;52.088;5.296;2023-04-06T05:07:36;23.8;;;15.5;;
64022;SDS011;50264;52.088;5.296;2023-04-06T05:09:13;27.1;;;15.8;;
64022;SDS011;50264;52.088;5.296;2023-04-06T05:12:26;19.5;;;15.1;;
64022;SDS011;50264;52.088;5.296;2023-04-06T05:14:02;17.91;;;15.7;;
64022;SDS011;50264;52.088;5.296;2023-04-06T05:15:39;17.41;;;15.1;;
64022;SDS011;50264;52.088;5.296;2023-04-06T05:17:15;23.1;;;16.4;;
64022;SDS011;50264;52.088;5.296;2023-04-06T05:20:28;21.3;;;15.7;;
64022;SDS011;50264;52.088;5.296;2023-04-06T05:22:05;21.0;;;16.11;;
64022;SDS011;50264;52.088;5.296;2023-04-06T05:23:41;24.6;;;16.3;;
64022;SDS011;50264;52.088;5.296;2023-04-06T05:26:55;19.3;;;15.4;;
64022;SDS011;50264;52.088;5.296;2023-04-06T05:28:31;23.3;;;16.5;;
64022;SDS011;50264;52.088;5.296;2023-04-06T05:30:08;18.3;;;15.2;;
64022;SDS011;50264;52.088;5.296;2023-04-06T05:33:22;23.5;;;15.6;;
64022;SDS011;50264;52.088;5.296;2023-04-06T05:34:59;28.9;;;16.11;;
64022;SDS011;50264;52.088;5.296;2023-04-06T05:36:36;22.1;;;17.3;;
64022;SDS011;50264;52.088;5.296;2023-04-06T05:39:48;22.3;;;16.5;;
64022;SDS011;50264;52.088;5.296;2023-04-06T05:41:24;22.9;;;18.2;;
64022;SDS011;50264;52.088;5.296;2023-04-06T05:43:01;22.9;;;15.5;;
64022;SDS011;50264;52.088;5.296;2023-04-06T05:44:37;28.0;;;16.8;;
64022;SDS011;50264;52.088;5.296;2023-04-06T05:47:51;20.6;;;16.61;;
64022;SDS011;50264;52.088;5.296;2023-04-06T05:49:27;20.41;;;17.0;;
64022;SDS011;50264;52.088;5.296;2023-04-06T05:51:03;21.0;;;16.9;;
64022;SDS011;50264;52.088;5.296;2023-04-06T05:54:17;21.8;;;17.7;;
64022;SDS011;50264;52.088;5.296;2023-04-06T05:55:52;24.6;;;17.61;;
64022;SDS011;50264;52.088;5.296;2023-04-06T05:59:06;28.6;;;18.11;;
64022;SDS011;50264;52.088;5.296;2023-04-06T06:02:19;26.7;;;18.2;;
64022;SDS011;50264;52.088;5.296;2023-04-06T06:03:57;22.8;;;17.8;;
64022;SDS011;50264;52.088;5.296;2023-04-06T06:05:33;23.4;;;17.61;;
64022;SDS011;50264;52.088;5.296;2023-04-06T06:08:46;20.3;;;17.41;;
64022;SDS011;50264;52.088;5.296;2023-04-06T06:10:22;24.5;;;17.8;;
64022;SDS011;50264;52.088;5.296;2023-04-06T06:11:59;21.7;;;17.8;;
64022;SDS011;50264;52.088;5.296;2023-04-06T06:15:12;20.5;;;17.7;;
64022;SDS011;50264;52.088;5.296;2023-04-06T06:16:48;24.2;;;18.8;;
64022;SDS011;50264;52.088;5.296;2023-04-06T06:18:24;27.2;;;19.0;;
64022;SDS011;50264;52.088;5.296;2023-04-06T06:21:36;28.7;;;19.2;;
64022;SDS011;50264;52.088;5.296;2023-04-06T06:23:12;25.7;;;19.5;;
64022;SDS011;50264;52.088;5.296;2023-04-06T06:24:50;28.8;;;19.91;;
64022;SDS011;50264;52.088;5.296;2023-04-06T06:26:26;25.5;;;19.5;;
64022;SDS011;50264;52.088;5.296;2023-04-06T06:29:38;32.9;;;19.11;;
64022;SDS011;50264;52.088;5.296;2023-04-06T06:31:14;25.8;;;19.11;;
64022;SDS011;50264;52.088;5.296;2023-04-06T06:32:51;27.1;;;19.0;;
64022;SDS011;50264;52.088;5.296;2023-04-06T06:36:04;27.1;;;19.41;;
64022;SDS011;50264;52.088;5.296;2023-04-06T06:37:40;23.1;;;18.8;;
64022;SDS011;50264;52.088;5.296;2023-04-06T06:39:16;29.6;;;19.5;;
64022;SDS011;50264;52.088;5.296;2023-04-06T06:42:28;29.6;;;19.5;;
64022;SDS011;50264;52.088;5.296;2023-04-06T06:44:04;28.7;;;20.2;;
64022;SDS011;50264;52.088;5.296;2023-04-06T06:45:41;27.2;;;19.0;;
64022;SDS011;50264;52.088;5.296;2023-04-06T06:47:17;27.5;;;19.7;;
64022;SDS011;50264;52.088;5.296;2023-04-06T06:50:30;28.5;;;20.2;;
64022;SDS011;50264;52.088;5.296;2023-04-06T06:52:06;27.3;;;19.61;;
64022;SDS011;50264;52.088;5.296;2023-04-06T06:53:42;24.5;;;19.61;;
64022;SDS011;50264;52.088;5.296;2023-04-06T06:56:54;28.6;;;20.11;;
64022;SDS011;50264;52.088;5.296;2023-04-06T06:58:31;29.2;;;19.7;;
64022;SDS011;50264;52.088;5.296;2023-04-06T07:00:07;31.2;;;19.8;;
64022;SDS011;50264;52.088;5.296;2023-04-06T07:03:21;28.6;;;20.6;;
64022;SDS011;50264;52.088;5.296;2023-04-06T07:04:57;29.1;;;19.8;;
64022;SDS011;50264;52.088;5.296;2023-04-06T07:06:33;27.4;;;19.11;;
64022;SDS011;50264;52.088;5.296;2023-04-06T07:08:11;28.4;;;20.7;;
64022;SDS011;50264;52.088;5.296;2023-04-06T07:11:24;22.6;;;20.0;;
64022;SDS011;50264;52.088;5.296;2023-04-06T07:13:00;29.6;;;20.2;;
64022;SDS011;50264;52.088;5.296;2023-04-06T07:14:36;27.6;;;19.8;;
64022;SDS011;50264;52.088;5.296;2023-04-06T07:17:48;30.6;;;20.0;;
64022;SDS011;50264;52.088;5.296;2023-04-06T07:19:24;28.5;;;20.41;;
64022;SDS011;50264;52.088;5.296;2023-04-06T07:21:00;33.0;;;20.5;;
64022;SDS011;50264;52.088;5.296;2023-04-06T07:24:14;29.9;;;20.5;;
64022;SDS011;50264;52.088;5.296;2023-04-06T07:25:50;28.2;;;21.0;;
64022;SDS011;50264;52.088;5.296;2023-04-06T07:27:26;27.6;;;21.6;;
64022;SDS011;50264;52.088;5.296;2023-04-06T07:30:38;33.3;;;20.6;;
64022;SDS011;50264;52.088;5.296;2023-04-06T07:32:15;28.0;;;20.7;;
64022;SDS011;50264;52.088;5.296;2023-04-06T07:33:51;31.0;;;21.5;;
64022;SDS011;50264;52.088;5.296;2023-04-06T07:35:28;26.2;;;20.9;;
64022;SDS011;50264;52.088;5.296;2023-04-06T07:38:40;26.7;;;21.1;;
64022;SDS011;50264;52.088;5.296;2023-04-06T07:40:16;24.9;;;20.41;;
64022;SDS011;50264;52.088;5.296;2023-04-06T07:41:52;24.6;;;20.8;;
64022;SDS011;50264;52.088;5.296;2023-04-06T07:45:05;25.2;;;20.9;;
64022;SDS011;50264;52.088;5.296;2023-04-06T07:46:42;29.6;;;21.6;;
64022;SDS011;50264;52.088;5.296;2023-04-06T07:48:18;28.8;;;21.9;;
64022;SDS011;50264;52.088;5.296;2023-04-06T07:51:30;26.7;;;21.2;;
64022;SDS011;50264;52.088;5.296;2023-04-06T07:53:08;27.7;;;22.8;;
64022;SDS011;50264;52.088;5.296;2023-04-06T07:54:44;30.0;;;23.0;;
64022;SDS011;50264;52.088;5.296;2023-04-06T07:56:20;35.4;;;22.0;;
64022;SDS011;50264;52.088;5.296;2023-04-06T07:59:33;27.2;;;21.4;;
64022;SDS011;50264;52.088;5.296;2023-04-06T08:01:09;31.8;;;22.7;;
64022;SDS011;50264;52.088;5.296;2023-04-06T08:02:45;29.4;;;21.9;;
64022;SDS011;50264;52.088;5.296;2023-04-06T08:05:57;26.6;;;20.6;;
64022;SDS011;50264;52.088;5.296;2023-04-06T08:07:33;32.71;;;22.2;;
64022;SDS011;50264;52.088;5.296;2023-04-06T08:09:09;29.1;;;21.4;;
64022;SDS011;50264;52.088;5.296;2023-04-06T08:12:21;30.6;;;22.4;;
64022;SDS011;50264;52.088;5.296;2023-04-06T08:13:57;24.3;;;21.3;;
64022;SDS011;50264;52.088;5.296;2023-04-06T08:15:33;33.1;;;22.2;;
64022;SDS011;50264;52.088;5.296;2023-04-06T08:18:45;28.4;;;21.3;;
64022;SDS011;50264;52.088;5.296;2023-04-06T08:20:22;33.1;;;22.4;;
64022;SDS011;50264;52.088;5.296;2023-04-06T08:21:58;30.4;;;22.4;;
64022;SDS011;50264;52.088;5.296;2023-04-06T08:23:34;32.8;;;22.4;;
64022;SDS011;50264;52.088;5.296;2023-04-06T08:26:45;27.3;;;21.8;;
64022;SDS011;50264;52.088;5.296;2023-04-06T08:28:21;34.71;;;21.1;;
64022;SDS011;50264;52.088;5.296;2023-04-06T08:29:57;31.8;;;22.3;;
64022;SDS011;50264;52.088;5.296;2023-04-06T08:33:10;32.3;;;22.5;;
64022;SDS011;50264;52.088;5.296;2023-04-06T08:34:46;32.8;;;23.3;;
64022;SDS011;50264;52.088;5.296;2023-04-06T08:36:22;29.4;;;23.2;;
64022;SDS011;50264;52.088;5.296;2023-04-06T08:39:34;30.5;;;22.7;;
64022;SDS011;50264;52.088;5.296;2023-04-06T08:41:11;29.8;;;22.7;;
64022;SDS011;50264;52.088;5.296;2023-04-06T08:42:49;32.21;;;23.5;;
64022;SDS011;50264;52.088;5.296;2023-04-06T08:44:30;36.1;;;23.8;;
64022;SDS011;50264;52.088;5.296;2023-04-06T08:47:44;39.0;;;24.4;;
64022;SDS011;50264;52.088;5.296;2023-04-06T08:49:22;30.4;;;23.0;;
64022;SDS011;50264;52.088;5.296;2023-04-06T08:50:58;31.3;;;22.5;;
64022;SDS011;50264;52.088;5.296;2023-04-06T08:54:12;32.8;;;23.0;;
64022;SDS011;50264;52.088;5.296;2023-04-06T08:55:48;33.5;;;22.9;;
64022;SDS011;50264;52.088;5.296;2023-04-06T08:57:26;33.5;;;22.9;;
64022;SDS011;50264;52.088;5.296;2023-04-06T08:59:03;29.5;;;22.6;;
64022;SDS011;50264;52.088;5.296;2023-04-06T09:02:17;30.8;;;23.4;;
64022;SDS011;50264;52.088;5.296;2023-04-06T09:03:55;31.9;;;22.9;;
64022;SDS011;50264;52.088;5.296;2023-04-06T09:05:33;32.6;;;23.3;;
64022;SDS011;50264;52.088;5.296;2023-04-06T09:08:47;32.9;;;22.5;;
64022;SDS011;50264;52.088;5.296;2023-04-06T09:10:23;30.4;;;24.0;;
64022;SDS011;50264;52.088;5.296;2023-04-06T09:11:59;33.71;;;22.1;;
64022;SDS011;50264;52.088;5.296;2023-04-06T09:15:21;31.2;;;23.0;;
64022;SDS011;50264;52.088;5.296;2023-04-06T09:16:57;30.9;;;23.1;;
64022;SDS011;50264;52.088;5.296;2023-04-06T09:18:33;37.81;;;24.4;;
64022;SDS011;50264;52.088;5.296;2023-04-06T09:20:10;32.8;;;24.8;;
64022;SDS011;50264;52.088;5.296;2023-04-06T09:23:23;34.31;;;23.4;;
64022;SDS011;50264;52.088;5.296;2023-04-06T09:24:59;34.1;;;24.0;;
64022;SDS011;50264;52.088;5.296;2023-04-06T09:26:50;30.4;;;23.3;;
64022;SDS011;50264;52.088;5.296;2023-04-06T09:28:26;42.0;;;23.8;;
64022;SDS011;50264;52.088;5.296;2023-04-06T09:31:40;29.0;;;24.2;;
64022;SDS011;50264;52.088;5.296;2023-04-06T09:33:21;36.1;;;25.4;;
64022;SDS011;50264;52.088;5.296;2023-04-06T09:35:06;31.8;;;25.8;;
64022;SDS011;50264;52.088;5.296;2023-04-06T09:36:43;35.9;;;26.0;;
64022;SDS011;50264;52.088;5.296;2023-04-06T09:40:02;38.5;;;26.0;;
64022;SDS011;50264;52.088;5.296;2023-04-06T09:41:39;44.7;;;28.3;;
64022;SDS011;50264;52.088;5.296;2023-04-06T09:43:22;37.71;;;27.6;;
64022;SDS011;50264;52.088;5.296;2023-04-06T09:46:37;34.6;;;27.0;;
64022;SDS011;50264;52.088;5.296;2023-04-06T09:48:15;53.7;;;37.31;;
64022;SDS011;50264;52.088;5.296;2023-04-06T09:49:53;53.7;;;37.31;;
64022;SDS011;50264;52.088;5.296;2023-04-06T09:51:36;40.0;;;29.0;;
64022;SDS011;50264;52.088;5.296;2023-04-06T09:54:55;43.3;;;29.2;;
64022;SDS011;50264;52.088;5.296;2023-04-06T09:56:39;38.6;;;28.1;;
64022;SDS011;50264;52.088;5.296;2023-04-06T09:58:21;43.4;;;29.0;;
64022;SDS011;50264;52.088;5.296;2023-04-06T10:00:01;40.81;;;28.5;;
64022;SDS011;50264;52.088;5.296;2023-04-06T10:03:18;41.9;;;28.2;;
64022;SDS011;50264;52.088;5.296;2023-04-06T10:05:05;43.2;;;28.1;;
64022;SDS011;50264;52.088;5.296;2023-04-06T10:06:48;38.31;;;27.2;;
64022;SDS011;50264;52.088;5.296;2023-04-06T10:08:24;37.6;;;27.1;;
64022;SDS011;50264;52.088;5.296;2023-04-06T10:11:40;34.31;;;24.3;;
64022;SDS011;50264;52.088;5.296;2023-04-06T10:13:19;37.71;;;25.9;;
64022;SDS011;50264;52.088;5.296;2023-04-06T10:14:56;34.6;;;24.4;;
64022;SDS011;50264;52.088;5.296;2023-04-06T10:16:32;33.1;;;23.6;;
64022;SDS011;50264;52.088;5.296;2023-04-06T10:19:46;28.4;;;22.9;;
64022;SDS011;50264;52.088;5.296;2023-04-06T10:21:39;30.2;;;22.8;;
64022;SDS011;50264;52.088;5.296;2023-04-06T10:23:19;29.4;;;20.0;;
64022;SDS011;50264;52.088;5.296;2023-04-06T10:25:05;32.1;;;22.3;;
64022;SDS011;50264;52.088;5.296;2023-04-06T10:28:33;32.6;;;22.1;;
64022;SDS011;50264;52.088;5.296;2023-04-06T10:30:14;27.6;;;19.0;;
64022;SDS011;50264;52.088;5.296;2023-04-06T10:31:51;22.6;;;15.6;;
64022;SDS011;50264;52.088;5.296;2023-04-06T10:33:27;19.11;;;13.6;;
64022;SDS011;50264;52.088;5.296;2023-04-06T10:36:43;16.5;;;13.6;;
64022;SDS011;50264;52.088;5.296;2023-04-06T10:38:19;18.61;;;13.0;;
64022;SDS011;50264;52.088;5.296;2023-04-06T10:39:55;15.7;;;12.7;;
64022;SDS011;50264;52.088;5.296;2023-04-06T10:41:32;16.0;;;13.0;;
64022;SDS011;50264;52.088;5.296;2023-04-06T10:44:47;12.7;;;10.9;;
64022;SDS011;50264;52.088;5.296;2023-04-06T10:46:25;14.9;;;10.5;;
64022;SDS011;50264;52.088;5.296;2023-04-06T10:48:20;11.8;;;10.6;;
64022;SDS011;50264;52.088;5.296;2023-04-06T10:49:56;11.8;;;10.6;;
64022;SDS011;50264;52.088;5.296;2023-04-06T10:53:20;12.5;;;9.4;;
64022;SDS011;50264;52.088;5.296;2023-04-06T10:54:58;10.6;;;8.71;;
64022;SDS011;50264;52.088;5.296;2023-04-06T10:56:36;11.1;;;8.6;;
64022;SDS011;50264;52.088;5.296;2023-04-06T10:59:53;11.5;;;8.0;;
64022;SDS011;50264;52.088;5.296;2023-04-06T11:01:28;8.71;;;7.7;;
64022;SDS011;50264;52.088;5.296;2023-04-06T11:03:04;8.9;;;7.5;;
64022;SDS011;50264;52.088;5.296;2023-04-06T11:04:41;7.7;;;6.3;;
64022;SDS011;50264;52.088;5.296;2023-04-06T11:07:55;7.6;;;6.2;;
64022;SDS011;50264;52.088;5.296;2023-04-06T11:09:31;9.0;;;6.8;;
64022;SDS011;50264;52.088;5.296;2023-04-06T11:11:08;12.4;;;7.1;;
64022;SDS011;50264;52.088;5.296;2023-04-06T11:14:28;10.5;;;7.7;;
64022;SDS011;50264;52.088;5.296;2023-04-06T11:16:04;8.6;;;7.6;;
64022;SDS011;50264;52.088;5.296;2023-04-06T11:17:40;10.0;;;7.9;;
64022;SDS011;50264;52.088;5.296;2023-04-06T11:19:16;9.1;;;7.9;;
64022;SDS011;50264;52.088;5.296;2023-04-06T11:22:30;10.21;;;8.31;;
64022;SDS011;50264;52.088;5.296;2023-04-06T11:24:07;9.1;;;7.9;;
64022;SDS011;50264;52.088;5.296;2023-04-06T11:25:49;9.4;;;8.0;;
64022;SDS011;50264;52.088;5.296;2023-04-06T11:29:03;11.3;;;8.71;;
64022;SDS011;50264;52.088;5.296;2023-04-06T11:30:40;8.81;;;7.9;;
64022;SDS011;50264;52.088;5.296;2023-04-06T11:32:19;10.1;;;7.7;;
64022;SDS011;50264;52.088;5.296;2023-04-06T11:33:57;9.71;;;6.6;;
64022;SDS011;50264;52.088;5.296;2023-04-06T11:37:10;12.2;;;7.2;;
64022;SDS011;50264;52.088;5.296;2023-04-06T11:38:47;9.9;;;7.4;;
64022;SDS011;50264;52.088;5.296;2023-04-06T11:40:24;9.21;;;7.1;;
64022;SDS011;50264;52.088;5.296;2023-04-06T11:43:37;10.0;;;7.9;;
64022;SDS011;50264;52.088;5.296;2023-04-06T11:45:14;11.5;;;8.4;;
64022;SDS011;50264;52.088;5.296;2023-04-06T11:46:51;11.1;;;8.31;;
64022;SDS011;50264;52.088;5.296;2023-04-06T11:50:05;12.5;;;8.9;;
64022;SDS011;50264;52.088;5.296;2023-04-06T11:51:43;17.0;;;10.21;;
64022;SDS011;50264;52.088;5.296;2023-04-06T11:53:19;11.1;;;9.21;;
64022;SDS011;50264;52.088;5.296;2023-04-06T11:54:55;12.8;;;9.81;;
64022;SDS011;50264;52.088;5.296;2023-04-06T11:58:07;14.6;;;10.4;;
64022;SDS011;50264;52.088;5.296;2023-04-06T11:59:43;18.7;;;10.3;;
64022;SDS011;50264;52.088;5.296;2023-04-06T12:01:20;12.5;;;10.3;;
64022;SDS011;50264;52.088;5.296;2023-04-06T12:04:33;15.8;;;12.2;;
64022;SDS011;50264;52.088;5.296;2023-04-06T12:06:09;15.5;;;11.6;;
64022;SDS011;50264;52.088;5.296;2023-04-06T12:07:45;15.4;;;12.8;;
64022;SDS011;50264;52.088;5.296;2023-04-06T12:10:57;13.8;;;12.2;;
64022;SDS011;50264;52.088;5.296;2023-04-06T12:12:33;15.4;;;13.6;;
64022;SDS011;50264;52.088;5.296;2023-04-06T12:14:10;14.9;;;12.5;;
64022;SDS011;50264;52.088;5.296;2023-04-06T12:15:46;15.4;;;13.7;;
64022;SDS011;50264;52.088;5.296;2023-04-06T12:18:59;16.9;;;13.8;;
64022;SDS011;50264;52.088;5.296;2023-04-06T12:20:35;20.6;;;15.3;;
64022;SDS011;50264;52.088;5.296;2023-04-06T12:22:11;17.8;;;14.9;;
64022;SDS011;50264;52.088;5.296;2023-04-06T12:25:23;21.9;;;15.3;;
64022;SDS011;50264;52.088;5.296;2023-04-06T12:26:59;15.6;;;14.0;;
64022;SDS011;50264;52.088;5.296;2023-04-06T12:28:35;19.0;;;14.7;;
64022;SDS011;50264;52.088;5.296;2023-04-06T12:31:48;19.5;;;14.9;;
64022;SDS011;50264;52.088;5.296;2023-04-06T12:33:24;19.3;;;16.8;;
64022;SDS011;50264;52.088;5.296;2023-04-06T12:35:00;20.0;;;16.4;;
64022;SDS011;50264;52.088;5.296;2023-04-06T12:36:36;16.61;;;14.7;;
64022;SDS011;50264;52.088;5.296;2023-04-06T12:39:49;16.2;;;14.2;;
64022;SDS011;50264;52.088;5.296;2023-04-06T12:41:26;18.5;;;15.2;;